sensor_id;sensor_type;location;lat;lon;timestamp;pressure;altitude;pressure_sealevel;temperature;humidity
70240;BME280;57629;52.256;10.414;2022-08-30T00:00:34;101453.22;;;23.20;51.31
70240;BME280;57629;52.256;10.414;2022-08-30T00:01:35;101452.41;;;23.19;51.30
70240;BME280;57629;52.256;10.414;2022-08-30T00:02:35;101451.59;;;23.19;51.22
70240;BME280;57629;52.256;10.414;2022-08-30T00:03:38;101445.44;;;23.18;51.16
70240;BME280;57629;52.256;10.414;2022-08-30T00:04:39;101451.59;;;23.19;51.24
70240;BME280;57629;52.256;10.414;2022-08-30T00:05:41;101448.91;;;23.19;51.44
70240;BME280;57629;52.256;10.414;2022-08-30T00:06:42;101451.59;;;23.19;51.30
70240;BME280;57629;52.256;10.414;2022-08-30T00:07:42;101451.59;;;23.19;51.22
70240;BME280;57629;52.256;10.414;2022-08-30T00:08:43;101456.16;;;23.18;51.37
70240;BME280;57629;52.256;10.414;2022-08-30T00:09:44;101450.78;;;23.18;51.09
70240;BME280;57629;52.256;10.414;2022-08-30T00:10:46;101457.78;;;23.19;51.43
70240;BME280;57629;52.256;10.414;2022-08-30T00:11:47;101455.09;;;23.19;51.30
70240;BME280;57629;52.256;10.414;2022-08-30T00:12:48;101451.59;;;23.19;51.30
70240;BME280;57629;52.256;10.414;2022-08-30T00:13:49;101455.66;;;23.21;51.09
70240;BME280;57629;52.256;10.414;2022-08-30T00:14:50;101454.84;;;23.21;51.29
70240;BME280;57629;52.256;10.414;2022-08-30T00:15:51;101454.06;;;23.20;51.22
70240;BME280;57629;52.256;10.414;2022-08-30T00:16:52;101445.19;;;23.20;51.15
70240;BME280;57629;52.256;10.414;2022-08-30T00:17:52;101454.06;;;23.20;51.16
70240;BME280;57629;52.256;10.414;2022-08-30T00:18:53;101454.06;;;23.20;51.18
70240;BME280;57629;52.256;10.414;2022-08-30T00:19:54;101453.22;;;23.20;51.25
70240;BME280;57629;52.256;10.414;2022-08-30T00:20:55;101447.84;;;23.20;51.18
70240;BME280;57629;52.256;10.414;2022-08-30T00:21:56;101447.84;;;23.20;51.19
70240;BME280;57629;52.256;10.414;2022-08-30T00:22:56;101454.06;;;23.20;51.29
70240;BME280;57629;52.256;10.414;2022-08-30T00:23:57;101456.72;;;23.20;51.07
70240;BME280;57629;52.256;10.414;2022-08-30T00:24:58;101457.53;;;23.21;51.06
70240;BME280;57629;52.256;10.414;2022-08-30T00:26:00;101446.00;;;23.20;51.08
70240;BME280;57629;52.256;10.414;2022-08-30T00:27:00;101449.50;;;23.21;51.04
70240;BME280;57629;52.256;10.414;2022-08-30T00:28:01;101448.69;;;23.20;51.04
70240;BME280;57629;52.256;10.414;2022-08-30T00:29:02;101452.41;;;23.19;51.11
70240;BME280;57629;52.256;10.414;2022-08-30T00:30:04;101457.53;;;23.21;51.01
70240;BME280;57629;52.256;10.414;2022-08-30T00:31:05;101447.63;;;23.21;51.09
70240;BME280;57629;52.256;10.414;2022-08-30T00:32:06;101455.09;;;23.19;50.86
70240;BME280;57629;52.256;10.414;2022-08-30T00:33:07;101445.19;;;23.20;51.18
70240;BME280;57629;52.256;10.414;2022-08-30T00:34:08;101450.53;;;23.20;51.10
70240;BME280;57629;52.256;10.414;2022-08-30T00:35:10;101454.06;;;23.20;51.03
70240;BME280;57629;52.256;10.414;2022-08-30T00:36:11;101448.91;;;23.19;51.09
70240;BME280;57629;52.256;10.414;2022-08-30T00:37:11;101454.06;;;23.20;50.97
70240;BME280;57629;52.256;10.414;2022-08-30T00:38:12;101452.41;;;23.19;50.89
70240;BME280;57629;52.256;10.414;2022-08-30T00:39:13;101454.06;;;23.20;50.90
70240;BME280;57629;52.256;10.414;2022-08-30T00:40:14;101461.25;;;23.20;50.95
70240;BME280;57629;52.256;10.414;2022-08-30T00:41:16;101460.44;;;23.19;50.83
70240;BME280;57629;52.256;10.414;2022-08-30T00:42:18;101461.25;;;23.20;50.83
70240;BME280;57629;52.256;10.414;2022-08-30T00:43:22;101459.66;;;23.19;50.82
70240;BME280;57629;52.256;10.414;2022-08-30T00:44:23;101460.44;;;23.19;50.74
70240;BME280;57629;52.256;10.414;2022-08-30T00:45:26;101462.31;;;23.19;50.89
70240;BME280;57629;52.256;10.414;2022-08-30T00:46:28;101455.09;;;23.19;51.05
70240;BME280;57629;52.256;10.414;2022-08-30T00:47:28;101450.78;;;23.18;51.01
70240;BME280;57629;52.256;10.414;2022-08-30T00:48:29;101456.97;;;23.19;50.97
70240;BME280;57629;52.256;10.414;2022-08-30T00:49:31;101456.97;;;23.19;50.96
70240;BME280;57629;52.256;10.414;2022-08-30T00:50:35;101450.78;;;23.18;51.15
70240;BME280;57629;52.256;10.414;2022-08-30T00:51:38;101449.16;;;23.17;51.08
70240;BME280;57629;52.256;10.414;2022-08-30T00:52:41;101448.13;;;23.18;50.97
70240;BME280;57629;52.256;10.414;2022-08-30T00:53:46;101450.78;;;23.18;51.05
70240;BME280;57629;52.256;10.414;2022-08-30T00:54:49;101450.00;;;23.18;50.88
70240;BME280;57629;52.256;10.414;2022-08-30T00:55:53;101446.47;;;23.17;51.08
70240;BME280;57629;52.256;10.414;2022-08-30T00:56:56;101448.34;;;23.17;50.82
70240;BME280;57629;52.256;10.414;2022-08-30T00:57:59;101447.53;;;23.16;50.85
70240;BME280;57629;52.256;10.414;2022-08-30T00:59:03;101451.03;;;23.17;50.78
70240;BME280;57629;52.256;10.414;2022-08-30T01:00:05;101448.59;;;23.15;50.78
70240;BME280;57629;52.256;10.414;2022-08-30T01:01:07;101448.59;;;23.15;50.68
70240;BME280;57629;52.256;10.414;2022-08-30T01:02:09;101447.53;;;23.16;50.68
70240;BME280;57629;52.256;10.414;2022-08-30T01:03:10;101447.78;;;23.15;50.72
70240;BME280;57629;52.256;10.414;2022-08-30T01:04:11;101445.09;;;23.15;50.64
70240;BME280;57629;52.256;10.414;2022-08-30T01:05:14;101436.25;;;23.14;50.49
70240;BME280;57629;52.256;10.414;2022-08-30T01:06:16;101446.16;;;23.14;50.40
70240;BME280;57629;52.256;10.414;2022-08-30T01:07:17;101448.84;;;23.14;50.48
70240;BME280;57629;52.256;10.414;2022-08-30T01:08:19;101446.97;;;23.14;50.49
70240;BME280;57629;52.256;10.414;2022-08-30T01:09:20;101444.28;;;23.14;50.44
70240;BME280;57629;52.256;10.414;2022-08-30T01:10:21;101440.00;;;23.13;50.56
70240;BME280;57629;52.256;10.414;2022-08-30T01:11:23;101445.38;;;23.13;50.47
70240;BME280;57629;52.256;10.414;2022-08-30T01:12:25;101444.53;;;23.13;50.57
70240;BME280;57629;52.256;10.414;2022-08-30T01:13:27;101450.72;;;23.13;50.65
70240;BME280;57629;52.256;10.414;2022-08-30T01:14:27;101444.53;;;23.13;50.70
70240;BME280;57629;52.256;10.414;2022-08-30T01:15:29;101445.38;;;23.13;50.80
70240;BME280;57629;52.256;10.414;2022-08-30T01:16:31;101441.84;;;23.13;50.55
70240;BME280;57629;52.256;10.414;2022-08-30T01:17:33;101444.53;;;23.13;50.61
70240;BME280;57629;52.256;10.414;2022-08-30T01:18:34;101449.88;;;23.13;51.01
70240;BME280;57629;52.256;10.414;2022-08-30T01:19:39;101446.41;;;23.12;50.80
70240;BME280;57629;52.256;10.414;2022-08-30T01:20:46;101448.28;;;23.12;50.75
70240;BME280;57629;52.256;10.414;2022-08-30T01:21:53;101446.41;;;23.12;50.85
70240;BME280;57629;52.256;10.414;2022-08-30T01:23:04;101449.88;;;23.13;50.98
70240;BME280;57629;52.256;10.414;2022-08-30T01:24:06;101451.75;;;23.12;50.71
70240;BME280;57629;52.256;10.414;2022-08-30T01:25:09;101447.47;;;23.11;50.70
70240;BME280;57629;52.256;10.414;2022-08-30T01:26:12;101444.78;;;23.11;50.83
70240;BME280;57629;52.256;10.414;2022-08-30T01:27:13;101445.59;;;23.12;50.64
70240;BME280;57629;52.256;10.414;2022-08-30T01:28:19;101447.47;;;23.11;50.74
70240;BME280;57629;52.256;10.414;2022-08-30T01:29:22;101446.66;;;23.11;50.66
70240;BME280;57629;52.256;10.414;2022-08-30T01:30:24;101464.59;;;23.10;50.63
70240;BME280;57629;52.256;10.414;2022-08-30T01:31:26;101454.69;;;23.11;50.44
70240;BME280;57629;52.256;10.414;2022-08-30T01:32:27;101449.34;;;23.11;50.53
70240;BME280;57629;52.256;10.414;2022-08-30T01:33:28;101450.38;;;23.10;50.51
70240;BME280;57629;52.256;10.414;2022-08-30T01:34:29;101452.03;;;23.11;50.52
70240;BME280;57629;52.256;10.414;2022-08-30T01:35:34;101457.38;;;23.11;50.54
70240;BME280;57629;52.256;10.414;2022-08-30T01:36:36;101454.69;;;23.11;50.58
70240;BME280;57629;52.256;10.414;2022-08-30T01:37:38;101448.50;;;23.10;50.47
70240;BME280;57629;52.256;10.414;2022-08-30T01:38:45;101453.88;;;23.10;50.40
70240;BME280;57629;52.256;10.414;2022-08-30T01:39:46;101451.19;;;23.10;50.66
70240;BME280;57629;52.256;10.414;2022-08-30T01:40:47;101458.19;;;23.11;50.65
70240;BME280;57629;52.256;10.414;2022-08-30T01:41:48;101456.53;;;23.10;50.37
70240;BME280;57629;52.256;10.414;2022-08-30T01:42:49;101452.03;;;23.11;50.57
70240;BME280;57629;52.256;10.414;2022-08-30T01:43:51;101463.53;;;23.11;50.37
70240;BME280;57629;52.256;10.414;2022-08-30T01:44:52;101457.38;;;23.11;50.54
70240;BME280;57629;52.256;10.414;2022-08-30T01:45:53;101457.13;;;23.12;50.49
70240;BME280;57629;52.256;10.414;2022-08-30T01:46:53;101452.56;;;23.13;50.37
70240;BME280;57629;52.256;10.414;2022-08-30T01:47:54;101465.16;;;23.12;50.50
70240;BME280;57629;52.256;10.414;2022-08-30T01:48:56;101462.47;;;23.12;50.40
70240;BME280;57629;52.256;10.414;2022-08-30T01:49:57;101456.31;;;23.12;50.46
70240;BME280;57629;52.256;10.414;2022-08-30T01:50:58;101457.13;;;23.12;50.52
70240;BME280;57629;52.256;10.414;2022-08-30T01:51:58;101456.31;;;23.12;50.37
70240;BME280;57629;52.256;10.414;2022-08-30T01:52:59;101455.50;;;23.11;50.32
70240;BME280;57629;52.256;10.414;2022-08-30T01:54:01;101453.41;;;23.13;50.54
70240;BME280;57629;52.256;10.414;2022-08-30T01:55:04;101456.09;;;23.13;50.50
70240;BME280;57629;52.256;10.414;2022-08-30T01:56:05;101459.81;;;23.12;50.65
70240;BME280;57629;52.256;10.414;2022-08-30T01:57:07;101457.13;;;23.12;50.52
70240;BME280;57629;52.256;10.414;2022-08-30T01:58:08;101463.28;;;23.13;50.42
70240;BME280;57629;52.256;10.414;2022-08-30T01:59:09;101451.75;;;23.12;50.49
70240;BME280;57629;52.256;10.414;2022-08-30T02:00:10;101457.94;;;23.13;50.44
70240;BME280;57629;52.256;10.414;2022-08-30T02:01:13;101455.25;;;23.13;50.55
70240;BME280;57629;52.256;10.414;2022-08-30T02:02:16;101449.09;;;23.12;50.56
70240;BME280;57629;52.256;10.414;2022-08-30T02:03:17;101465.97;;;23.13;50.57
70240;BME280;57629;52.256;10.414;2022-08-30T02:04:18;101454.44;;;23.12;50.51
70240;BME280;57629;52.256;10.414;2022-08-30T02:05:18;101447.47;;;23.11;50.44
70240;BME280;57629;52.256;10.414;2022-08-30T02:06:19;101457.13;;;23.12;50.45
70240;BME280;57629;52.256;10.414;2022-08-30T02:07:21;101461.44;;;23.13;50.62
70240;BME280;57629;52.256;10.414;2022-08-30T02:08:22;101450.97;;;23.12;50.53
70240;BME280;57629;52.256;10.414;2022-08-30T02:09:24;101452.56;;;23.13;50.58
70240;BME280;57629;52.256;10.414;2022-08-30T02:10:25;101455.25;;;23.13;50.35
70240;BME280;57629;52.256;10.414;2022-08-30T02:11:26;101454.44;;;23.12;50.36
70240;BME280;57629;52.256;10.414;2022-08-30T02:12:26;101459.00;;;23.12;50.36
70240;BME280;57629;52.256;10.414;2022-08-30T02:13:28;101452.56;;;23.13;50.30
70240;BME280;57629;52.256;10.414;2022-08-30T02:14:28;101449.09;;;23.12;50.28
70240;BME280;57629;52.256;10.414;2022-08-30T02:15:29;101454.44;;;23.12;50.40
70240;BME280;57629;52.256;10.414;2022-08-30T02:16:30;101450.16;;;23.11;50.49
70240;BME280;57629;52.256;10.414;2022-08-30T02:17:31;101450.97;;;23.12;50.52
70240;BME280;57629;52.256;10.414;2022-08-30T02:18:32;101455.50;;;23.11;50.52
70240;BME280;57629;52.256;10.414;2022-08-30T02:19:33;101447.47;;;23.11;50.48
70240;BME280;57629;52.256;10.414;2022-08-30T02:20:33;101452.03;;;23.11;50.54
70240;BME280;57629;52.256;10.414;2022-08-30T02:21:34;101453.63;;;23.12;50.64
70240;BME280;57629;52.256;10.414;2022-08-30T02:22:35;101452.03;;;23.11;50.45
70240;BME280;57629;52.256;10.414;2022-08-30T02:23:36;101452.81;;;23.11;50.53
70240;BME280;57629;52.256;10.414;2022-08-30T02:24:38;101450.16;;;23.11;50.51
70240;BME280;57629;52.256;10.414;2022-08-30T02:25:39;101449.34;;;23.11;50.43
70240;BME280;57629;52.256;10.414;2022-08-30T02:26:40;101447.72;;;23.10;50.40
70240;BME280;57629;52.256;10.414;2022-08-30T02:27:40;101444.22;;;23.09;50.42
70240;BME280;57629;52.256;10.414;2022-08-30T02:28:41;101442.34;;;23.10;50.51
70240;BME280;57629;52.256;10.414;2022-08-30T02:29:42;101444.22;;;23.09;50.44
70240;BME280;57629;52.256;10.414;2022-08-30T02:30:43;101441.53;;;23.09;50.08
70240;BME280;57629;52.256;10.414;2022-08-30T02:31:43;101441.53;;;23.09;50.24
70240;BME280;57629;52.256;10.414;2022-08-30T02:32:44;101441.53;;;23.09;50.21
70240;BME280;57629;52.256;10.414;2022-08-30T02:33:45;101440.72;;;23.09;50.15
70240;BME280;57629;52.256;10.414;2022-08-30T02:34:45;101449.59;;;23.09;50.22
70240;BME280;57629;52.256;10.414;2022-08-30T02:35:46;101443.41;;;23.09;50.15
70240;BME280;57629;52.256;10.414;2022-08-30T02:36:47;101444.44;;;23.08;50.13
70240;BME280;57629;52.256;10.414;2022-08-30T02:37:47;101446.09;;;23.09;50.24
70240;BME280;57629;52.256;10.414;2022-08-30T02:38:48;101446.31;;;23.07;50.33
70240;BME280;57629;52.256;10.414;2022-08-30T02:39:50;101439.09;;;23.08;50.34
70240;BME280;57629;52.256;10.414;2022-08-30T02:40:51;101438.28;;;23.07;50.31
70240;BME280;57629;52.256;10.414;2022-08-30T02:41:52;101439.09;;;23.08;50.44
70240;BME280;57629;52.256;10.414;2022-08-30T02:42:53;101444.44;;;23.08;50.34
70240;BME280;57629;52.256;10.414;2022-08-30T02:43:53;101437.47;;;23.07;50.41
70240;BME280;57629;52.256;10.414;2022-08-30T02:44:54;101446.31;;;23.07;50.26
70240;BME280;57629;52.256;10.414;2022-08-30T02:45:55;101440.97;;;23.07;50.33
70240;BME280;57629;52.256;10.414;2022-08-30T02:46:55;101439.34;;;23.06;50.45
70240;BME280;57629;52.256;10.414;2022-08-30T02:47:56;101437.47;;;23.07;50.30
70240;BME280;57629;52.256;10.414;2022-08-30T02:48:57;101435.94;;;23.11;50.23
70240;BME280;57629;52.256;10.414;2022-08-30T02:49:57;101436.75;;;23.11;50.66
70240;BME280;57629;52.256;10.414;2022-08-30T02:51:03;101433.28;;;23.11;50.27
70240;BME280;57629;52.256;10.414;2022-08-30T02:52:04;101436.19;;;23.09;50.80
70240;BME280;57629;52.256;10.414;2022-08-30T02:53:05;101436.19;;;23.09;50.67
70240;BME280;57629;52.256;10.414;2022-08-30T02:54:06;101443.41;;;23.09;50.64
70240;BME280;57629;52.256;10.414;2022-08-30T02:55:09;101437.25;;;23.08;50.58
70240;BME280;57629;52.256;10.414;2022-08-30T02:56:11;101439.94;;;23.08;50.76
70240;BME280;57629;52.256;10.414;2022-08-30T02:57:12;101440.16;;;23.07;50.59
70240;BME280;57629;52.256;10.414;2022-08-30T02:58:12;101438.56;;;23.06;50.63
70240;BME280;57629;52.256;10.414;2022-08-30T02:59:13;101437.47;;;23.07;50.64
70240;BME280;57629;52.256;10.414;2022-08-30T03:00:17;101437.47;;;23.07;50.47
70240;BME280;57629;52.256;10.414;2022-08-30T03:01:18;101437.47;;;23.07;50.47
70240;BME280;57629;52.256;10.414;2022-08-30T03:02:19;101436.91;;;23.05;50.39
70240;BME280;57629;52.256;10.414;2022-08-30T03:03:20;101436.69;;;23.06;50.19
70240;BME280;57629;52.256;10.414;2022-08-30T03:04:20;101440.16;;;23.07;50.50
70240;BME280;57629;52.256;10.414;2022-08-30T03:05:21;101441.22;;;23.06;50.48
70240;BME280;57629;52.256;10.414;2022-08-30T03:06:22;101435.88;;;23.06;50.43
70240;BME280;57629;52.256;10.414;2022-08-30T03:07:22;101435.88;;;23.06;50.40
70240;BME280;57629;52.256;10.414;2022-08-30T03:08:23;101434.22;;;23.05;50.33
70240;BME280;57629;52.256;10.414;2022-08-30T03:09:24;101437.47;;;23.07;50.60
70240;BME280;57629;52.256;10.414;2022-08-30T03:10:26;101436.69;;;23.06;50.56
70240;BME280;57629;52.256;10.414;2022-08-30T03:11:27;101438.28;;;23.07;50.51
70240;BME280;57629;52.256;10.414;2022-08-30T03:12:28;101438.28;;;23.07;50.53
70240;BME280;57629;52.256;10.414;2022-08-30T03:13:29;101444.44;;;23.08;50.61
70240;BME280;57629;52.256;10.414;2022-08-30T03:14:30;101440.97;;;23.07;50.56
70240;BME280;57629;52.256;10.414;2022-08-30T03:15:30;101445.53;;;23.07;50.47
70240;BME280;57629;52.256;10.414;2022-08-30T03:16:31;101444.44;;;23.08;50.54
70240;BME280;57629;52.256;10.414;2022-08-30T03:17:31;101443.66;;;23.07;50.58
70240;BME280;57629;52.256;10.414;2022-08-30T03:18:32;101442.59;;;23.08;50.47
70240;BME280;57629;52.256;10.414;2022-08-30T03:19:33;101439.09;;;23.08;50.61
70240;BME280;57629;52.256;10.414;2022-08-30T03:20:34;101445.28;;;23.08;50.53
70240;BME280;57629;52.256;10.414;2022-08-30T03:21:36;101437.25;;;23.08;50.44
70240;BME280;57629;52.256;10.414;2022-08-30T03:22:37;101441.78;;;23.08;50.39
70240;BME280;57629;52.256;10.414;2022-08-30T03:23:38;101440.72;;;23.09;50.50
70240;BME280;57629;52.256;10.414;2022-08-30T03:24:39;101439.94;;;23.08;50.41
70240;BME280;57629;52.256;10.414;2022-08-30T03:25:41;101438.06;;;23.09;50.61
70240;BME280;57629;52.256;10.414;2022-08-30T03:26:42;101442.59;;;23.08;50.52
70240;BME280;57629;52.256;10.414;2022-08-30T03:27:43;101438.06;;;23.09;50.52
70240;BME280;57629;52.256;10.414;2022-08-30T03:28:43;101439.09;;;23.08;50.59
70240;BME280;57629;52.256;10.414;2022-08-30T03:29:44;101439.94;;;23.08;50.55
70240;BME280;57629;52.256;10.414;2022-08-30T03:30:45;101442.59;;;23.08;50.45
70240;BME280;57629;52.256;10.414;2022-08-30T03:31:45;101442.59;;;23.08;50.68
70240;BME280;57629;52.256;10.414;2022-08-30T03:32:46;101447.97;;;23.08;50.65
70240;BME280;57629;52.256;10.414;2022-08-30T03:33:47;101440.72;;;23.09;50.26
70240;BME280;57629;52.256;10.414;2022-08-30T03:34:48;101444.22;;;23.09;50.43
70240;BME280;57629;52.256;10.414;2022-08-30T03:35:49;101426.53;;;23.08;50.51
70240;BME280;57629;52.256;10.414;2022-08-30T03:36:50;101444.22;;;23.09;50.54
70240;BME280;57629;52.256;10.414;2022-08-30T03:37:51;101438.88;;;23.09;50.50
70240;BME280;57629;52.256;10.414;2022-08-30T03:38:51;101436.19;;;23.09;50.49
70240;BME280;57629;52.256;10.414;2022-08-30T03:39:52;101432.69;;;23.09;50.47
70240;BME280;57629;52.256;10.414;2022-08-30T03:40:54;101433.50;;;23.09;50.52
70240;BME280;57629;52.256;10.414;2022-08-30T03:41:54;101434.56;;;23.08;50.67
70240;BME280;57629;52.256;10.414;2022-08-30T03:42:55;101434.56;;;23.08;50.55
70240;BME280;57629;52.256;10.414;2022-08-30T03:43:56;101430.03;;;23.09;50.50
70240;BME280;57629;52.256;10.414;2022-08-30T03:44:56;101426.53;;;23.08;50.70
70240;BME280;57629;52.256;10.414;2022-08-30T03:45:57;101435.38;;;23.09;50.61
70240;BME280;57629;52.256;10.414;2022-08-30T03:46:58;101435.38;;;23.09;50.60
70240;BME280;57629;52.256;10.414;2022-08-30T03:47:58;101433.75;;;23.08;50.56
70240;BME280;57629;52.256;10.414;2022-08-30T03:48:59;101437.25;;;23.08;50.62
70240;BME280;57629;52.256;10.414;2022-08-30T03:50:00;101432.94;;;23.07;50.74
70240;BME280;57629;52.256;10.414;2022-08-30T03:51:01;101441.78;;;23.08;50.63
70240;BME280;57629;52.256;10.414;2022-08-30T03:52:02;101433.75;;;23.08;50.68
70240;BME280;57629;52.256;10.414;2022-08-30T03:53:03;101431.06;;;23.08;50.60
70240;BME280;57629;52.256;10.414;2022-08-30T03:54:03;101435.59;;;23.07;50.69
70240;BME280;57629;52.256;10.414;2022-08-30T03:55:05;101432.94;;;23.07;50.63
70240;BME280;57629;52.256;10.414;2022-08-30T03:56:07;101438.28;;;23.07;50.76
70240;BME280;57629;52.256;10.414;2022-08-30T03:57:08;101439.09;;;23.08;50.58
70240;BME280;57629;52.256;10.414;2022-08-30T03:58:08;101440.16;;;23.07;50.66
70240;BME280;57629;52.256;10.414;2022-08-30T03:59:09;101435.88;;;23.06;50.58
70240;BME280;57629;52.256;10.414;2022-08-30T04:00:11;101434.22;;;23.05;50.76
70240;BME280;57629;52.256;10.414;2022-08-30T04:01:12;101438.56;;;23.06;50.76
70240;BME280;57629;52.256;10.414;2022-08-30T04:02:13;101441.22;;;23.06;50.72
70240;BME280;57629;52.256;10.414;2022-08-30T04:03:14;101439.34;;;23.06;50.78
70240;BME280;57629;52.256;10.414;2022-08-30T04:04:15;101434.22;;;23.05;50.89
70240;BME280;57629;52.256;10.414;2022-08-30T04:05:16;101443.91;;;23.06;50.71
70240;BME280;57629;52.256;10.414;2022-08-30T04:06:16;101441.47;;;23.04;50.77
70240;BME280;57629;52.256;10.414;2022-08-30T04:07:17;101438.78;;;23.04;50.80
70240;BME280;57629;52.256;10.414;2022-08-30T04:08:18;101448.44;;;23.05;50.85
70240;BME280;57629;52.256;10.414;2022-08-30T04:09:19;101439.59;;;23.05;50.77
70240;BME280;57629;52.256;10.414;2022-08-30T04:10:20;101439.84;;;23.03;50.79
70240;BME280;57629;52.256;10.414;2022-08-30T04:11:22;101442.28;;;23.05;50.77
70240;BME280;57629;52.256;10.414;2022-08-30T04:12:23;101446.81;;;23.04;50.84
70240;BME280;57629;52.256;10.414;2022-08-30T04:13:23;101442.28;;;23.05;50.79
70240;BME280;57629;52.256;10.414;2022-08-30T04:14:24;101446.81;;;23.04;50.70
70240;BME280;57629;52.256;10.414;2022-08-30T04:15:25;101446.81;;;23.04;50.91
70240;BME280;57629;52.256;10.414;2022-08-30T04:16:25;101444.94;;;23.05;50.43
70240;BME280;57629;52.256;10.414;2022-08-30T04:17:26;101452.19;;;23.04;50.79
70240;BME280;57629;52.256;10.414;2022-08-30T04:18:27;101454.06;;;23.04;50.85
70240;BME280;57629;52.256;10.414;2022-08-30T04:19:29;101452.19;;;23.04;50.83
70240;BME280;57629;52.256;10.414;2022-08-30T04:20:29;101458.59;;;23.03;50.86
70240;BME280;57629;52.256;10.414;2022-08-30T04:21:30;101453.25;;;23.03;50.80
70240;BME280;57629;52.256;10.414;2022-08-30T04:22:31;101454.88;;;23.04;50.72
70240;BME280;57629;52.256;10.414;2022-08-30T04:23:31;101456.72;;;23.04;50.78
70240;BME280;57629;52.256;10.414;2022-08-30T04:24:32;101458.34;;;23.05;50.79
70240;BME280;57629;52.256;10.414;2022-08-30T04:25:33;101456.72;;;23.04;50.86
70240;BME280;57629;52.256;10.414;2022-08-30T04:26:35;101455.09;;;23.03;50.80
70240;BME280;57629;52.256;10.414;2022-08-30T04:27:35;101460.22;;;23.04;50.75
70240;BME280;57629;52.256;10.414;2022-08-30T04:28:36;101456.72;;;23.04;50.76
70240;BME280;57629;52.256;10.414;2022-08-30T04:29:37;101460.44;;;23.03;50.95
70240;BME280;57629;52.256;10.414;2022-08-30T04:30:38;101460.44;;;23.03;50.78
70240;BME280;57629;52.256;10.414;2022-08-30T04:31:39;101459.41;;;23.04;50.99
70240;BME280;57629;52.256;10.414;2022-08-30T04:32:39;101458.59;;;23.03;51.13
70240;BME280;57629;52.256;10.414;2022-08-30T04:33:40;101461.28;;;23.03;50.81
70240;BME280;57629;52.256;10.414;2022-08-30T04:34:42;101463.13;;;23.03;50.80
70240;BME280;57629;52.256;10.414;2022-08-30T04:35:45;101466.66;;;23.03;50.84
70240;BME280;57629;52.256;10.414;2022-08-30T04:36:47;101469.31;;;23.03;50.85
70240;BME280;57629;52.256;10.414;2022-08-30T04:37:47;101472.00;;;23.03;50.91
70240;BME280;57629;52.256;10.414;2022-08-30T04:38:48;101462.09;;;23.04;50.78
70240;BME280;57629;52.256;10.414;2022-08-30T04:39:49;101467.44;;;23.04;50.85
70240;BME280;57629;52.256;10.414;2022-08-30T04:40:49;101467.44;;;23.04;50.84
70240;BME280;57629;52.256;10.414;2022-08-30T04:41:51;101472.81;;;23.04;50.75
70240;BME280;57629;52.256;10.414;2022-08-30T04:42:52;101476.28;;;23.04;50.56
70240;BME280;57629;52.256;10.414;2022-08-30T04:43:52;101474.41;;;23.05;50.78
70240;BME280;57629;52.256;10.414;2022-08-30T04:44:53;101473.38;;;23.06;50.82
70240;BME280;57629;52.256;10.414;2022-08-30T04:45:54;101475.22;;;23.05;50.78
70240;BME280;57629;52.256;10.414;2022-08-30T04:46:55;101479.53;;;23.06;50.58
70240;BME280;57629;52.256;10.414;2022-08-30T04:47:55;101480.34;;;23.07;50.66
70240;BME280;57629;52.256;10.414;2022-08-30T04:48:56;101478.97;;;23.04;50.89
70240;BME280;57629;52.256;10.414;2022-08-30T04:49:57;101476.88;;;23.06;50.74
70240;BME280;57629;52.256;10.414;2022-08-30T04:50:57;101485.72;;;23.07;50.79
70240;BME280;57629;52.256;10.414;2022-08-30T04:51:58;101482.44;;;23.05;50.69
70240;BME280;57629;52.256;10.414;2022-08-30T04:52:59;101484.09;;;23.06;50.88
70240;BME280;57629;52.256;10.414;2022-08-30T04:54:00;101478.72;;;23.06;50.61
70240;BME280;57629;52.256;10.414;2022-08-30T04:55:00;101476.06;;;23.06;50.70
70240;BME280;57629;52.256;10.414;2022-08-30T04:56:06;101485.72;;;23.07;50.85
70240;BME280;57629;52.256;10.414;2022-08-30T04:57:08;101492.13;;;23.06;50.71
70240;BME280;57629;52.256;10.414;2022-08-30T04:58:09;101482.22;;;23.06;50.82
70240;BME280;57629;52.256;10.414;2022-08-30T04:59:10;101492.13;;;23.06;50.75
70240;BME280;57629;52.256;10.414;2022-08-30T05:00:12;101495.63;;;23.06;50.75
70240;BME280;57629;52.256;10.414;2022-08-30T05:01:14;101487.81;;;23.05;50.89
70240;BME280;57629;52.256;10.414;2022-08-30T05:02:15;101493.75;;;23.07;50.79
70240;BME280;57629;52.256;10.414;2022-08-30T05:03:16;101496.41;;;23.07;50.71
70240;BME280;57629;52.256;10.414;2022-08-30T05:04:16;101496.41;;;23.07;50.88
70240;BME280;57629;52.256;10.414;2022-08-30T05:05:17;101498.28;;;23.06;50.73
70240;BME280;57629;52.256;10.414;2022-08-30T05:06:19;101499.09;;;23.07;50.73
70240;BME280;57629;52.256;10.414;2022-08-30T05:07:20;101501.78;;;23.07;50.75
70240;BME280;57629;52.256;10.414;2022-08-30T05:08:21;101498.28;;;23.06;50.90
70240;BME280;57629;52.256;10.414;2022-08-30T05:09:22;101503.66;;;23.06;50.77
70240;BME280;57629;52.256;10.414;2022-08-30T05:10:23;101500.97;;;23.06;50.77
70240;BME280;57629;52.256;10.414;2022-08-30T05:11:23;101506.34;;;23.06;50.73
70240;BME280;57629;52.256;10.414;2022-08-30T05:12:25;101509.25;;;23.05;50.62
70240;BME280;57629;52.256;10.414;2022-08-30T05:13:26;101506.06;;;23.08;50.75
70240;BME280;57629;52.256;10.414;2022-08-30T05:14:27;101512.50;;;23.07;50.81
70240;BME280;57629;52.256;10.414;2022-08-30T05:15:27;101514.38;;;23.06;50.76
70240;BME280;57629;52.256;10.414;2022-08-30T05:16:28;101514.38;;;23.06;50.67